createdAt,value
2019-05-09T00:02:34.188Z,15.30
2019-05-09T00:05:03.820Z,15.18
2019-05-09T00:07:33.726Z,15.18
2019-05-09T00:10:04.066Z,16.52
2019-05-09T00:12:33.513Z,15.98
2019-05-09T00:15:04.447Z,15.57
2019-05-09T00:17:33.742Z,14.09
2019-05-09T00:20:08.308Z,14.34
2019-05-09T00:22:37.472Z,14.86
2019-05-09T00:25:06.229Z,14.86
2019-05-09T00:27:34.956Z,14.40
2019-05-09T00:30:04.009Z,14.73
2019-05-09T00:32:37.580Z,14.73
2019-05-09T00:35:23.373Z,15.92
2019-05-09T00:37:56.683Z,15.44
2019-05-09T00:40:25.609Z,16.64
2019-05-09T00:42:54.555Z,15.93
2019-05-09T00:45:43.893Z,15.78
2019-05-09T00:48:14.666Z,15.98
2019-05-09T00:50:43.807Z,15.06
2019-05-09T00:53:13.780Z,15.24
2019-05-09T00:55:43.628Z,14.83
2019-05-09T00:58:13.601Z,15.71
2019-05-09T01:00:43.902Z,15.62
2019-05-09T01:03:14.145Z,15.06
2019-05-09T01:05:43.680Z,13.82
2019-05-09T01:08:13.693Z,13.94
2019-05-09T01:10:43.632Z,14.31
2019-05-09T01:13:14.201Z,15.19
2019-05-09T01:15:43.990Z,15.62
2019-05-09T01:18:13.319Z,14.86
2019-05-09T01:20:44.065Z,14.86
2019-05-09T01:23:14.211Z,14.78
2019-05-09T01:25:43.593Z,14.17
2019-05-09T01:28:13.974Z,13.90
2019-05-09T01:30:43.852Z,13.81
2019-05-09T01:33:25.623Z,14.88
2019-05-09T01:35:54.364Z,15.22
2019-05-09T01:38:23.294Z,14.29
2019-05-09T01:40:53.274Z,13.97
2019-05-09T01:43:24.243Z,13.97
2019-05-09T01:45:54.078Z,15.08
2019-05-09T01:48:23.483Z,15.08
2019-05-09T01:50:53.779Z,14.98
2019-05-09T01:53:27.329Z,14.96
2019-05-09T01:55:58.973Z,14.62
2019-05-09T01:58:29.641Z,14.46
2019-05-09T02:00:58.454Z,14.38
2019-05-09T02:03:27.106Z,14.38
2019-05-09T02:05:55.871Z,15.19
2019-05-09T02:08:24.567Z,14.15
2019-05-09T02:10:54.285Z,14.15
2019-05-09T02:13:23.230Z,14.14
2019-05-09T02:16:03.500Z,14.14
2019-05-09T02:18:38.070Z,13.23
2019-05-09T02:21:06.748Z,13.81
2019-05-09T02:23:35.408Z,13.23
2019-05-09T02:26:04.294Z,13.23
2019-05-09T02:28:34.142Z,13.03
2019-05-09T02:31:05.221Z,13.37
2019-05-09T02:33:34.634Z,13.72
2019-05-09T02:36:03.693Z,14.14
2019-05-09T02:38:32.285Z,13.66
2019-05-09T02:41:00.939Z,13.66
2019-05-09T02:43:29.532Z,13.37
2019-05-09T02:46:04.767Z,14.03
2019-05-09T02:48:33.387Z,14.03
2019-05-09T02:51:02.032Z,13.57
2019-05-09T02:53:30.762Z,13.65
2019-05-09T02:55:59.423Z,13.70
2019-05-09T02:58:30.571Z,13.87
2019-05-09T03:01:39.105Z,13.61
2019-05-09T03:04:08.423Z,14.18
2019-05-09T03:06:38.895Z,13.67
2019-05-09T03:09:08.953Z,13.90
2019-05-09T03:11:38.974Z,13.89
2019-05-09T03:14:09.073Z,14.22
2019-05-09T03:16:39.794Z,14.44
2019-05-09T03:19:09.274Z,14.12
2019-05-09T03:21:49.280Z,14.56
2019-05-09T03:24:18.633Z,15.15
2019-05-09T03:26:51.858Z,14.86
2019-05-09T03:29:39.952Z,14.22
2019-05-09T03:32:09.487Z,14.79
2019-05-09T03:34:38.245Z,14.11
2019-05-09T03:37:08.442Z,14.55
2019-05-09T03:39:37.761Z,14.95
2019-05-09T03:42:07.861Z,13.97
2019-05-09T03:44:38.481Z,14.80
2019-05-09T03:47:28.110Z,14.57
2019-05-09T03:50:14.520Z,14.61
2019-05-09T03:52:43.135Z,15.71
2019-05-09T03:55:17.703Z,15.85
2019-05-09T03:57:51.283Z,15.64
2019-05-09T04:00:20.188Z,16.40
2019-05-09T04:02:48.814Z,16.00
2019-05-09T04:05:18.106Z,15.29
2019-05-09T04:07:47.913Z,15.27
2019-05-09T04:10:18.011Z,14.97
2019-05-09T04:12:55.676Z,14.52
2019-05-09T04:15:19.188Z,14.87
2019-05-09T04:17:48.050Z,14.57
2019-05-09T04:20:17.520Z,15.03
2019-05-09T04:22:48.797Z,14.26
2019-05-09T04:25:21.870Z,13.78
2019-05-09T04:27:51.868Z,14.75
2019-05-09T04:30:20.575Z,14.94
2019-05-09T04:32:49.173Z,15.03
2019-05-09T04:35:17.825Z,14.91
2019-05-09T04:37:48.213Z,14.73
2019-05-09T04:40:17.846Z,16.62
2019-05-09T04:42:47.444Z,16.40
2019-05-09T04:45:28.308Z,16.40
2019-05-09T04:47:57.771Z,16.54
2019-05-09T04:50:27.966Z,17.04
2019-05-09T04:52:57.996Z,17.59
2019-05-09T04:55:28.386Z,17.31
2019-05-09T04:57:59.916Z,17.31
2019-05-09T05:00:49.757Z,16.09
2019-05-09T05:03:18.441Z,16.09
2019-05-09T05:05:48.202Z,16.29
2019-05-09T05:08:18.159Z,15.45
2019-05-09T05:10:47.775Z,16.57
2019-05-09T05:13:26.381Z,16.57
2019-05-09T05:15:47.491Z,16.68
2019-05-09T05:18:17.362Z,17.40
2019-05-09T05:20:48.173Z,17.00
2019-05-09T05:23:24.745Z,17.27
2019-05-09T05:25:53.950Z,17.27
2019-05-09T05:28:22.682Z,17.82
2019-05-09T05:30:51.599Z,17.03
2019-05-09T05:33:38.271Z,15.18
2019-05-09T05:36:08.288Z,15.18
2019-05-09T05:38:37.686Z,16.10
2019-05-09T05:41:07.978Z,15.79
2019-05-09T05:43:41.531Z,14.62
2019-05-09T05:46:32.000Z,16.25
2019-05-09T05:49:00.648Z,16.55
2019-05-09T05:51:31.451Z,16.29
2019-05-09T05:54:01.508Z,16.42
2019-05-09T05:56:30.150Z,15.39
2019-05-09T05:58:58.838Z,16.22
2019-05-09T06:01:27.962Z,17.83
2019-05-09T06:03:58.602Z,17.12
2019-05-09T06:06:28.097Z,17.29
2019-05-09T06:08:57.953Z,17.98
2019-05-09T06:11:28.063Z,18.14
2019-05-09T06:14:04.404Z,18.23
2019-05-09T06:16:28.152Z,19.14
2019-05-09T06:18:58.540Z,18.49
2019-05-09T06:21:28.249Z,18.04
2019-05-09T06:23:58.415Z,17.24
2019-05-09T06:26:29.206Z,17.04
2019-05-09T06:28:57.871Z,16.72
2019-05-09T06:31:28.468Z,15.70
2019-05-09T06:33:57.927Z,15.56
2019-05-09T06:36:28.395Z,15.74
2019-05-09T06:38:58.768Z,16.58
2019-05-09T06:41:28.522Z,17.63
2019-05-09T06:44:14.228Z,16.65
2019-05-09T06:46:39.281Z,17.47
2019-05-09T06:49:26.759Z,17.28
2019-05-09T06:51:42.409Z,18.08
2019-05-09T06:54:11.110Z,18.00
2019-05-09T06:56:40.086Z,17.36
2019-05-09T06:59:08.828Z,18.38
2019-05-09T07:01:42.759Z,17.30
2019-05-09T07:04:18.373Z,17.72
2019-05-09T07:06:50.800Z,18.18
2019-05-09T07:09:23.387Z,19.78
2019-05-09T07:11:52.222Z,21.64
2019-05-09T07:14:33.869Z,20.43
2019-05-09T07:17:01.513Z,21.96
2019-05-09T07:19:30.274Z,22.78
2019-05-09T07:22:08.874Z,21.85
2019-05-09T07:25:14.231Z,21.78
2019-05-09T07:27:43.221Z,21.94
2019-05-09T07:30:34.199Z,20.96
2019-05-09T07:33:11.933Z,20.90
2019-05-09T07:35:40.741Z,19.77
2019-05-09T07:38:09.612Z,20.00
2019-05-09T07:40:38.775Z,20.27
2019-05-09T07:43:07.802Z,20.06
2019-05-09T07:45:38.434Z,21.32
2019-05-09T07:48:07.641Z,22.12
2019-05-09T07:50:38.964Z,23.06
2019-05-09T07:53:08.778Z,23.08
2019-05-09T07:55:37.880Z,21.70
2019-05-09T07:58:08.045Z,22.01
2019-05-09T08:00:38.415Z,21.34
2019-05-09T08:03:10.317Z,20.61
2019-05-09T08:05:38.605Z,22.18
2019-05-09T08:08:10.589Z,19.89
2019-05-09T08:10:39.206Z,19.03
2019-05-09T08:13:11.542Z,20.69
2019-05-09T08:15:38.551Z,21.04
2019-05-09T08:18:08.490Z,20.80
2019-05-09T08:20:40.656Z,22.58
2019-05-09T08:23:08.950Z,23.46
2019-05-09T08:25:38.364Z,25.75
2019-05-09T08:28:09.029Z,26.22
2019-05-09T08:30:40.337Z,22.38
2019-05-09T08:33:08.480Z,21.00
2019-05-09T08:35:38.353Z,20.89
2019-05-09T08:38:08.572Z,21.01
2019-05-09T08:40:38.384Z,20.90
2019-05-09T08:43:07.697Z,19.99
2019-05-09T08:45:38.293Z,20.08
2019-05-09T08:48:09.202Z,20.60
2019-05-09T08:50:43.961Z,20.18
2019-05-09T08:53:12.655Z,19.60
2019-05-09T08:55:41.373Z,21.66
2019-05-09T08:58:10.007Z,22.79
2019-05-09T09:00:39.238Z,21.17
2019-05-09T09:03:08.290Z,20.42
2019-05-09T09:05:38.180Z,19.76
2019-05-09T09:08:08.391Z,19.57
2019-05-09T09:10:38.575Z,19.99
2019-05-09T09:13:08.871Z,19.31
2019-05-09T09:15:57.995Z,19.12
2019-05-09T09:18:09.003Z,19.01
2019-05-09T09:20:38.104Z,17.37
2019-05-09T09:23:08.885Z,17.47
2019-05-09T09:25:39.124Z,19.82
2019-05-09T09:28:08.918Z,20.40
2019-05-09T09:30:38.853Z,20.22
2019-05-09T09:33:13.547Z,20.96
2019-05-09T09:35:39.462Z,20.19
2019-05-09T09:38:09.313Z,18.24
2019-05-09T09:40:38.731Z,18.94
2019-05-09T09:43:09.299Z,17.46
2019-05-09T09:45:38.195Z,18.45
2019-05-09T09:48:09.012Z,20.77
2019-05-09T09:50:38.318Z,23.88
2019-05-09T09:53:08.703Z,25.64
2019-05-09T09:55:38.635Z,25.33
2019-05-09T09:58:08.273Z,25.22
2019-05-09T10:00:54.516Z,26.55
2019-05-09T10:03:23.872Z,24.68
2019-05-09T10:05:52.549Z,23.85
2019-05-09T10:08:21.329Z,23.17
2019-05-09T10:10:50.282Z,22.05
2019-05-09T10:13:18.954Z,21.38
2019-05-09T10:16:24.553Z,22.22
2019-05-09T10:18:48.588Z,20.72
2019-05-09T10:21:20.788Z,20.72
2019-05-09T10:23:49.430Z,20.19
2019-05-09T10:26:18.125Z,21.40
2019-05-09T10:28:48.577Z,19.90
2019-05-09T10:31:17.536Z,20.45
2019-05-09T10:33:48.167Z,19.26
2019-05-09T10:36:16.678Z,19.89
2019-05-09T10:38:47.633Z,19.06
2019-05-09T10:41:15.884Z,19.67
2019-05-09T10:43:57.874Z,19.30
2019-05-09T10:46:52.179Z,19.37
2019-05-09T10:49:08.408Z,18.48
2019-05-09T10:51:36.449Z,19.56
2019-05-09T10:54:07.845Z,21.02
2019-05-09T10:56:38.184Z,20.75
2019-05-09T10:59:07.824Z,21.58
2019-05-09T11:01:38.121Z,22.04
2019-05-09T11:04:08.263Z,21.54
2019-05-09T11:06:38.262Z,21.19
2019-05-09T11:09:08.744Z,19.75
2019-05-09T11:11:37.512Z,20.90
2019-05-09T11:14:08.331Z,19.44
2019-05-09T11:16:44.843Z,20.68
2019-05-09T11:19:08.155Z,19.94
2019-05-09T11:21:39.091Z,20.64
2019-05-09T11:24:08.386Z,21.58
2019-05-09T11:26:39.871Z,19.49
2019-05-09T11:29:08.217Z,19.07
2019-05-09T11:31:38.503Z,17.88
2019-05-09T11:34:08.932Z,17.60
2019-05-09T11:36:38.089Z,18.09
2019-05-09T11:39:10.843Z,18.60
2019-05-09T11:41:38.509Z,17.94
2019-05-09T11:44:08.583Z,18.37
2019-05-09T11:46:38.184Z,17.97
2019-05-09T11:49:08.258Z,17.92
2019-05-09T11:51:37.267Z,17.70
2019-05-09T11:54:08.822Z,17.97
2019-05-09T11:56:38.423Z,18.33
2019-05-09T11:59:07.894Z,18.93
2019-05-09T12:01:39.425Z,18.13
2019-05-09T12:04:08.088Z,17.72
2019-05-09T12:06:38.370Z,18.82
2019-05-09T12:09:08.709Z,17.80
2019-05-09T12:11:40.099Z,18.81
2019-05-09T12:14:08.922Z,18.07
2019-05-09T12:16:38.188Z,18.11
2019-05-09T12:19:06.919Z,18.69
2019-05-09T12:21:42.483Z,19.05
2019-05-09T12:24:05.983Z,19.34
2019-05-09T12:26:34.624Z,19.74
2019-05-09T12:29:03.237Z,20.43
2019-05-09T12:31:31.901Z,20.42
2019-05-09T12:34:00.590Z,18.67
2019-05-09T12:36:29.278Z,19.31
2019-05-09T12:38:59.129Z,19.18
2019-05-09T12:41:31.716Z,20.11
2019-05-09T12:43:58.457Z,19.51
2019-05-09T12:46:28.423Z,19.36
2019-05-09T12:48:59.175Z,19.05
2019-05-09T12:51:29.351Z,19.28
2019-05-09T12:53:58.378Z,19.34
2019-05-09T12:56:28.498Z,20.40
2019-05-09T12:58:58.184Z,19.80
2019-05-09T13:01:26.930Z,20.46
2019-05-09T13:03:58.073Z,20.77
2019-05-09T13:06:28.929Z,20.46
2019-05-09T13:08:58.317Z,20.35
2019-05-09T13:11:27.960Z,19.85
2019-05-09T13:13:58.874Z,19.31
2019-05-09T13:16:53.548Z,20.06
2019-05-09T13:19:20.722Z,19.86
2019-05-09T13:21:49.407Z,20.41
2019-05-09T13:24:19.532Z,20.46
2019-05-09T13:26:50.327Z,19.92
2019-05-09T13:29:19.284Z,20.19
2019-05-09T13:31:48.449Z,19.24
2019-05-09T13:34:18.835Z,19.41
2019-05-09T13:36:48.946Z,20.19
2019-05-09T13:39:18.104Z,20.65
2019-05-09T13:41:47.588Z,21.56
2019-05-09T13:44:18.182Z,21.76
2019-05-09T13:46:48.905Z,21.18
2019-05-09T13:49:19.340Z,20.86
2019-05-09T13:51:57.443Z,20.65
2019-05-09T13:54:18.927Z,22.02
2019-05-09T13:56:53.321Z,21.07
2019-05-09T13:59:18.751Z,21.59
2019-05-09T14:01:48.555Z,21.28
2019-05-09T14:04:17.175Z,20.96
2019-05-09T14:06:45.781Z,19.91
2019-05-09T14:09:14.721Z,20.01
2019-05-09T14:11:43.578Z,19.98
2019-05-09T14:14:12.335Z,19.15
2019-05-09T14:16:41.173Z,20.26
2019-05-09T14:19:30.147Z,18.71
2019-05-09T14:21:41.742Z,19.38
2019-05-09T14:24:15.396Z,19.62
2019-05-09T14:26:40.957Z,18.84
2019-05-09T14:29:12.635Z,19.89
2019-05-09T14:31:40.483Z,19.23
2019-05-09T14:34:09.600Z,19.94
2019-05-09T14:36:44.455Z,18.13
2019-05-09T14:39:09.625Z,18.20
2019-05-09T14:41:39.042Z,19.16
2019-05-09T14:44:11.303Z,19.64
2019-05-09T14:46:40.513Z,18.57
2019-05-09T14:49:09.278Z,19.79
2019-05-09T14:51:38.343Z,19.49
2019-05-09T14:54:08.314Z,18.11
2019-05-09T14:56:41.939Z,19.19
2019-05-09T14:59:09.795Z,19.52
2019-05-09T15:01:38.670Z,19.93
2019-05-09T15:04:09.111Z,19.97
2019-05-09T15:06:37.824Z,19.31
2019-05-09T15:09:08.393Z,19.78
2019-05-09T15:11:39.504Z,19.87
2019-05-09T15:14:08.310Z,19.33
2019-05-09T15:16:39.204Z,18.52
2019-05-09T15:19:08.655Z,18.94
2019-05-09T15:21:38.431Z,19.02
2019-05-09T15:24:09.321Z,18.48
2019-05-09T15:26:37.716Z,20.05
2019-05-09T15:29:08.098Z,19.82
2019-05-09T15:31:39.232Z,20.92
2019-05-09T15:34:09.928Z,21.45
2019-05-09T15:36:38.071Z,20.97
2019-05-09T15:39:08.127Z,20.06
2019-05-09T15:41:38.437Z,21.75
2019-05-09T15:44:08.411Z,21.01
2019-05-09T15:46:47.814Z,20.57
2019-05-09T15:49:18.318Z,19.16
2019-05-09T15:51:47.907Z,20.65
2019-05-09T15:54:17.874Z,19.64
2019-05-09T15:56:48.352Z,20.83
2019-05-09T15:59:18.159Z,19.98
2019-05-09T16:01:49.153Z,21.48
2019-05-09T16:04:18.082Z,21.32
2019-05-09T16:06:50.407Z,20.85
2019-05-09T16:09:18.133Z,21.16
2019-05-09T16:11:48.368Z,20.24
2019-05-09T16:14:18.426Z,19.60
2019-05-09T16:16:47.935Z,19.29
2019-05-09T16:19:16.680Z,20.00
2019-05-09T16:21:47.781Z,20.35
2019-05-09T16:24:18.654Z,19.93
2019-05-09T16:26:48.774Z,20.47
2019-05-09T16:29:17.859Z,19.50
2019-05-09T16:31:48.046Z,20.23
2019-05-09T16:34:17.761Z,20.19
2019-05-09T16:36:48.005Z,19.45
2019-05-09T16:39:17.951Z,19.57
2019-05-09T16:41:48.415Z,19.37
2019-05-09T16:44:18.501Z,19.37
2019-05-09T16:46:48.620Z,19.97
2019-05-09T16:49:19.902Z,19.60
2019-05-09T16:51:48.581Z,20.07
2019-05-09T16:54:18.157Z,20.50
2019-05-09T16:56:47.401Z,19.35
2019-05-09T16:59:17.831Z,19.63
2019-05-09T17:01:50.050Z,20.58
2019-05-09T17:04:19.078Z,20.33
2019-05-09T17:06:49.682Z,20.06
2019-05-09T17:09:18.554Z,19.81
2019-05-09T17:11:48.026Z,19.28
2019-05-09T17:14:19.327Z,19.98
2019-05-09T17:16:48.263Z,19.98
2019-05-09T17:19:19.411Z,19.93
2019-05-09T17:22:09.504Z,19.67
2019-05-09T17:24:40.216Z,19.19
2019-05-09T17:27:08.945Z,20.99
2019-05-09T17:29:38.342Z,19.74
2019-05-09T17:32:07.878Z,20.24
2019-05-09T17:34:38.138Z,20.60
2019-05-09T17:37:08.020Z,20.01
2019-05-09T17:39:38.707Z,20.14
2019-05-09T17:42:07.749Z,19.43
2019-05-09T17:44:36.785Z,19.13
2019-05-09T17:47:08.151Z,19.19
2019-05-09T17:49:37.487Z,19.71
2019-05-09T17:52:07.617Z,20.24
2019-05-09T17:54:37.935Z,19.54
2019-05-09T17:57:07.976Z,19.76
2019-05-09T17:59:39.104Z,19.96
2019-05-09T18:02:08.741Z,20.43
2019-05-09T18:04:37.980Z,20.84
2019-05-09T18:07:08.793Z,20.40
2019-05-09T18:09:37.296Z,20.25
2019-05-09T18:12:08.107Z,19.86
2019-05-09T18:14:38.272Z,19.52
2019-05-09T18:17:06.742Z,19.56
2019-05-09T18:19:37.935Z,19.84
2019-05-09T18:22:08.148Z,19.50
2019-05-09T18:24:37.679Z,20.12
2019-05-09T18:27:07.657Z,19.82
2019-05-09T18:29:38.049Z,19.85
2019-05-09T18:32:35.020Z,19.81
2019-05-09T18:35:23.093Z,19.25
2019-05-09T18:37:51.910Z,19.32
2019-05-09T18:40:20.753Z,18.79
2019-05-09T18:42:49.731Z,18.98
2019-05-09T18:45:18.836Z,18.95
2019-05-09T18:47:48.303Z,19.45
2019-05-09T18:50:17.487Z,19.71
2019-05-09T18:52:46.471Z,19.15
2019-05-09T18:55:16.616Z,19.04
2019-05-09T18:57:45.656Z,18.70
2019-05-09T19:00:15.125Z,18.63
2019-05-09T19:02:44.268Z,18.40
2019-05-09T19:05:14.845Z,18.69
2019-05-09T19:07:43.518Z,18.60
2019-05-09T19:10:14.104Z,18.54
2019-05-09T19:12:42.862Z,18.64
2019-05-09T19:15:17.861Z,18.19
2019-05-09T19:18:04.319Z,18.47
2019-05-09T19:20:47.025Z,18.14
2019-05-09T19:23:15.663Z,18.25
2019-05-09T19:25:44.322Z,18.22
2019-05-09T19:28:13.008Z,18.22
2019-05-09T19:30:41.800Z,18.32
2019-05-09T19:33:10.489Z,18.01
2019-05-09T19:35:39.237Z,18.34
2019-05-09T19:38:07.906Z,17.81
2019-05-09T19:40:36.840Z,17.16
2019-05-09T19:43:05.846Z,17.58
2019-05-09T19:45:34.540Z,17.10
2019-05-09T19:48:03.141Z,17.18
2019-05-09T19:50:31.815Z,17.66
2019-05-09T19:53:00.425Z,18.07
2019-05-09T19:55:29.098Z,18.22
2019-05-09T19:57:57.761Z,18.71
2019-05-09T20:00:26.443Z,18.08
2019-05-09T20:02:55.445Z,17.46
2019-05-09T20:05:24.117Z,17.59
2019-05-09T20:07:52.836Z,18.02
2019-05-09T20:10:39.285Z,18.23
2019-05-09T20:13:18.946Z,18.15
2019-05-09T20:15:47.836Z,18.57
2019-05-09T20:18:16.437Z,18.13
2019-05-09T20:20:45.346Z,18.48
2019-05-09T20:23:13.997Z,18.64
2019-05-09T20:25:42.708Z,17.71
2019-05-09T20:28:11.328Z,17.52
2019-05-09T20:30:39.967Z,17.91
2019-05-09T20:33:08.665Z,17.44
2019-05-09T20:35:37.292Z,17.23
2019-05-09T20:38:06.395Z,17.08
2019-05-09T20:40:35.235Z,17.32
2019-05-09T20:43:04.205Z,17.29
2019-05-09T20:45:33.349Z,18.11
2019-05-09T20:48:02.268Z,17.21
2019-05-09T20:50:31.173Z,16.93
2019-05-09T20:53:09.148Z,17.68
2019-05-09T20:55:30.775Z,17.09
2019-05-09T20:57:59.634Z,18.03
2019-05-09T21:00:28.710Z,17.90
2019-05-09T21:02:57.640Z,17.74
2019-05-09T21:05:26.574Z,17.99
2019-05-09T21:07:55.668Z,17.98
2019-05-09T21:10:24.640Z,18.19
2019-05-09T21:12:53.619Z,18.10
2019-05-09T21:15:22.614Z,18.17
2019-05-09T21:17:51.407Z,18.32
2019-05-09T21:20:20.403Z,18.09
2019-05-09T21:22:49.515Z,18.27
2019-05-09T21:25:18.587Z,18.28
2019-05-09T21:27:47.543Z,18.34
2019-05-09T21:30:17.003Z,18.49
2019-05-09T21:32:45.943Z,17.55
2019-05-09T21:35:14.874Z,16.71
2019-05-09T21:37:43.952Z,15.94
2019-05-09T21:40:13.110Z,16.42
2019-05-09T21:42:41.774Z,16.58
2019-05-09T21:45:11.708Z,15.83
2019-05-09T21:47:40.328Z,16.35
2019-05-09T21:50:09.115Z,15.19
2019-05-09T21:52:37.830Z,15.11
2019-05-09T21:55:06.530Z,15.08
2019-05-09T21:57:35.182Z,14.44
2019-05-09T22:00:04.197Z,14.55
2019-05-09T22:02:32.829Z,14.67
2019-05-09T22:05:02.124Z,14.72
2019-05-09T22:07:30.764Z,15.25
2019-05-09T22:10:00.172Z,15.40
2019-05-09T22:12:29.079Z,15.32
2019-05-09T22:14:57.931Z,15.75
2019-05-09T22:17:38.137Z,16.25
2019-05-09T22:20:07.942Z,17.27
2019-05-09T22:22:37.071Z,16.65
2019-05-09T22:25:07.040Z,16.99
2019-05-09T22:27:35.696Z,17.20
2019-05-09T22:30:05.840Z,16.33
2019-05-09T22:32:34.517Z,17.08
2019-05-09T22:35:03.131Z,17.02
2019-05-09T22:37:32.209Z,16.99
2019-05-09T22:40:00.871Z,17.40
2019-05-09T22:42:29.549Z,16.02
2019-05-09T22:44:58.391Z,16.18
2019-05-09T22:47:27.102Z,16.33
2019-05-09T22:49:55.727Z,15.40
2019-05-09T22:52:24.368Z,16.39
2019-05-09T22:54:52.999Z,16.14
2019-05-09T22:57:21.663Z,15.44
2019-05-09T22:59:50.508Z,15.91
2019-05-09T23:02:19.588Z,14.86
2019-05-09T23:04:48.415Z,15.58
2019-05-09T23:07:17.156Z,15.57
2019-05-09T23:09:45.747Z,15.10
2019-05-09T23:12:14.867Z,15.33
2019-05-09T23:14:43.532Z,16.25
2019-05-09T23:17:12.144Z,16.05
2019-05-09T23:19:40.727Z,15.33
2019-05-09T23:22:09.916Z,15.15
2019-05-09T23:24:38.906Z,16.51
2019-05-09T23:27:09.204Z,16.70
2019-05-09T23:29:38.169Z,16.38
2019-05-09T23:32:15.807Z,15.65
2019-05-09T23:34:44.670Z,16.44
2019-05-09T23:37:13.356Z,16.57
2019-05-09T23:39:44.035Z,16.36
2019-05-09T23:42:12.766Z,15.83
2019-05-09T23:44:41.938Z,15.68
2019-05-09T23:47:10.592Z,16.29
2019-05-09T23:49:39.261Z,16.58
2019-05-09T23:52:07.949Z,15.72
2019-05-09T23:54:54.329Z,15.83
2019-05-09T23:57:40.939Z,15.26
